Disclaimer

Please do not use the information listed here in-flight or in-navigation, as they are not provided to us by the airports but are provided by volunteers, so they might be outdated.

Search


Regions


Airport information page

Radio informations:
Tower (TWR) - 118.0 MHz

Airport informations:
Latitude: 46° 13' 25.27" N
Longitude: 014° 27' 27.40" E
Elevation: 1273 feet - 388 meters
Operating hours: Remarks
Operating agency: Civil government, landing fees and diplomatic clearance may be required
Timezone: UTC+1(+2DT) - Last Sunday in March to last Sunday in October
Fuel: Jet A1, without icing nhibitor.

100/130 MIL Spec, low lead, aviation gasoline (BLUE)

Runway information:
13/31 - 10827 x 148 feet< - >3300 x 45 meters

Recent METARs:
LJLJ 151230Z 08004KT 9999 FEW027 02/M05 Q1018 NOSIG
LJLJ 151300Z 14004KT 110V170 9999 FEW040 02/M04 Q1018 NOSIG
LJLJ 151330Z 16005KT 120V180 9999 FEW040 02/M04 Q1018 NOSIG

Airport on the map: